createdAt,value
2023-03-18T00:01:16.258Z,50.69
2023-03-18T00:03:45.990Z,50.64
2023-03-18T00:06:16.039Z,50.46
2023-03-18T00:08:45.506Z,50.64
2023-03-18T00:11:15.838Z,51.34
2023-03-18T00:13:44.305Z,51.80
2023-03-18T00:16:15.214Z,51.85
2023-03-18T00:18:44.040Z,51.71
2023-03-18T00:21:12.424Z,51.66
2023-03-18T00:23:40.834Z,51.26
2023-03-18T00:26:09.250Z,52.01
2023-03-18T00:28:38.331Z,52.11
2023-03-18T00:31:09.512Z,52.50
2023-03-18T00:33:41.254Z,52.16
2023-03-18T00:36:10.788Z,51.42
2023-03-18T00:38:39.207Z,52.56
2023-03-18T00:41:12.309Z,52.27
2023-03-18T00:43:49.483Z,52.24
2023-03-18T00:46:20.599Z,51.74
2023-03-18T00:48:50.564Z,52.06
2023-03-18T00:51:19.790Z,52.51
2023-03-18T00:53:52.026Z,52.76
2023-03-18T00:56:22.295Z,52.31
2023-03-18T00:58:52.441Z,52.42
2023-03-18T01:01:21.667Z,52.84
2023-03-18T01:03:51.825Z,51.95
2023-03-18T01:06:23.053Z,52.05
2023-03-18T01:08:51.945Z,52.01
2023-03-18T01:11:20.553Z,52.75
2023-03-18T01:13:49.156Z,52.45
2023-03-18T01:16:17.996Z,52.72
2023-03-18T01:18:46.829Z,52.67
2023-03-18T01:21:17.292Z,53.69
2023-03-18T01:23:45.653Z,52.93
2023-03-18T01:26:14.061Z,52.25
2023-03-18T01:28:42.550Z,52.96
2023-03-18T01:31:12.810Z,52.63
2023-03-18T01:33:41.635Z,52.12
2023-03-18T01:36:10.784Z,52.32
2023-03-18T01:38:42.518Z,52.03
2023-03-18T01:41:11.920Z,52.37
2023-03-18T01:43:42.970Z,52.67
2023-03-18T01:46:34.339Z,52.84
2023-03-18T01:49:04.148Z,53.16
2023-03-18T01:51:32.662Z,53.64
2023-03-18T01:54:04.787Z,53.37
2023-03-18T01:56:36.806Z,53.35
2023-03-18T01:59:08.072Z,53.79
2023-03-18T02:01:41.993Z,54.31
2023-03-18T02:04:11.675Z,54.58
2023-03-18T02:06:40.339Z,53.93
2023-03-18T02:09:10.813Z,54.06
2023-03-18T02:11:42.579Z,54.97
2023-03-18T02:14:14.471Z,54.81
2023-03-18T02:16:46.230Z,55.80
2023-03-18T02:19:27.659Z,56.86
2023-03-18T02:22:04.786Z,56.81
2023-03-18T02:24:42.824Z,57.51
2023-03-18T02:27:21.001Z,56.46
2023-03-18T02:29:50.417Z,56.77
2023-03-18T02:32:20.309Z,56.30
2023-03-18T02:34:49.512Z,56.24
2023-03-18T02:37:17.712Z,55.55
2023-03-18T02:39:46.032Z,55.52
2023-03-18T02:42:14.827Z,54.98
2023-03-18T02:44:47.212Z,55.82
2023-03-18T02:47:20.086Z,55.84
2023-03-18T02:49:48.367Z,56.91
2023-03-18T02:52:16.874Z,57.60
2023-03-18T02:54:45.165Z,58.88
2023-03-18T02:57:13.384Z,58.21
2023-03-18T02:59:41.674Z,57.36
2023-03-18T03:02:11.888Z,57.63
2023-03-18T03:04:40.248Z,57.45
2023-03-18T03:07:08.732Z,58.58
2023-03-18T03:09:37.060Z,57.95
2023-03-18T03:12:05.769Z,57.57
2023-03-18T03:14:34.038Z,57.05
2023-03-18T03:17:02.816Z,56.51
2023-03-18T03:19:33.340Z,57.46
2023-03-18T03:22:01.971Z,57.89
2023-03-18T03:24:30.456Z,57.86
2023-03-18T03:26:58.741Z,57.60
2023-03-18T03:29:27.020Z,58.17
2023-03-18T03:31:55.899Z,58.42
2023-03-18T03:34:25.066Z,58.38
2023-03-18T03:36:54.936Z,57.94
2023-03-18T03:39:23.267Z,57.17
2023-03-18T03:41:51.762Z,57.07
2023-03-18T03:44:20.442Z,58.17
2023-03-18T03:46:49.499Z,56.56
2023-03-18T03:49:18.722Z,58.57
2023-03-18T03:51:46.945Z,58.88
2023-03-18T03:54:16.924Z,60.36
2023-03-18T03:56:45.162Z,57.90
2023-03-18T03:59:13.408Z,58.29
2023-03-18T04:01:41.767Z,57.50
2023-03-18T04:04:10.217Z,56.93
2023-03-18T04:06:38.582Z,56.52
2023-03-18T04:09:06.920Z,57.11
2023-03-18T04:11:36.609Z,56.89
2023-03-18T04:14:04.880Z,58.10
2023-03-18T04:16:34.211Z,57.24
2023-03-18T04:19:02.509Z,56.28
2023-03-18T04:21:30.812Z,56.54
2023-03-18T04:23:59.120Z,56.96
2023-03-18T04:26:28.644Z,56.78
2023-03-18T04:28:58.476Z,56.54
2023-03-18T04:31:27.284Z,55.49
2023-03-18T04:33:55.641Z,54.82
2023-03-18T04:36:23.936Z,55.44
2023-03-18T04:38:52.735Z,55.24
2023-03-18T04:41:21.132Z,55.40
2023-03-18T04:43:49.715Z,56.14
2023-03-18T04:46:19.855Z,55.31
2023-03-18T04:48:48.307Z,56.38
2023-03-18T04:51:16.553Z,57.81
2023-03-18T04:53:44.871Z,57.85
2023-03-18T04:56:13.069Z,57.56
2023-03-18T04:58:41.462Z,56.76
2023-03-18T05:01:10.266Z,57.46
2023-03-18T05:03:40.055Z,57.00
2023-03-18T05:06:09.472Z,57.61
2023-03-18T05:08:37.816Z,55.98
2023-03-18T05:11:06.403Z,56.39
2023-03-18T05:13:34.603Z,55.27
2023-03-18T05:16:03.000Z,55.86
2023-03-18T05:18:31.313Z,55.32
2023-03-18T05:21:01.198Z,55.50
2023-03-18T05:23:29.981Z,54.95
2023-03-18T05:25:58.664Z,56.21
2023-03-18T05:28:27.375Z,55.94
2023-03-18T05:30:55.676Z,56.19
2023-03-18T05:33:24.015Z,56.38
2023-03-18T05:36:01.105Z,56.54
2023-03-18T05:38:30.904Z,55.64
2023-03-18T05:40:59.232Z,56.50
2023-03-18T05:43:28.520Z,56.20
2023-03-18T05:45:56.797Z,55.77
2023-03-18T05:48:25.782Z,55.91
2023-03-18T05:50:54.196Z,55.66
2023-03-18T05:53:22.577Z,55.44
2023-03-18T05:55:52.190Z,54.55
2023-03-18T05:58:21.236Z,54.65
2023-03-18T06:00:53.586Z,55.14
2023-03-18T06:03:22.003Z,55.18
2023-03-18T06:05:50.365Z,55.48
2023-03-18T06:08:18.919Z,54.80
2023-03-18T06:10:47.311Z,54.41
2023-03-18T06:13:17.682Z,54.95
2023-03-18T06:15:47.782Z,54.87
2023-03-18T06:18:17.377Z,55.83
2023-03-18T06:20:45.998Z,54.99
2023-03-18T06:23:15.292Z,53.87
2023-03-18T06:25:43.577Z,54.34
2023-03-18T06:28:11.908Z,53.33
2023-03-18T06:30:46.198Z,53.32
2023-03-18T06:33:19.907Z,53.02
2023-03-18T06:35:49.604Z,52.73
2023-03-18T06:38:18.334Z,52.82
2023-03-18T06:40:47.490Z,53.19
2023-03-18T06:43:15.770Z,52.45
2023-03-18T06:45:45.442Z,53.25
2023-03-18T06:48:13.897Z,52.43
2023-03-18T06:50:49.449Z,53.43
2023-03-18T06:53:17.932Z,53.71
2023-03-18T06:55:46.214Z,54.14
2023-03-18T06:58:14.550Z,54.52
2023-03-18T07:00:45.528Z,55.51
2023-03-18T07:03:15.822Z,55.93
2023-03-18T07:05:44.100Z,56.67
2023-03-18T07:08:12.494Z,55.17
2023-03-18T07:10:40.997Z,54.75
2023-03-18T07:13:10.615Z,55.12
2023-03-18T07:15:39.419Z,55.17
2023-03-18T07:18:12.008Z,55.79
2023-03-18T07:20:40.565Z,54.65
2023-03-18T07:23:09.991Z,53.54
2023-03-18T07:25:38.645Z,54.23
2023-03-18T07:28:06.918Z,53.70
2023-03-18T07:30:35.405Z,53.03
2023-03-18T07:33:05.761Z,52.96
2023-03-18T07:35:36.033Z,52.95
2023-03-18T07:38:04.608Z,53.13
2023-03-18T07:40:32.958Z,53.67
2023-03-18T07:43:01.219Z,53.02
2023-03-18T07:45:30.304Z,52.67
2023-03-18T07:47:59.005Z,53.11
2023-03-18T07:50:27.899Z,53.21
2023-03-18T07:52:57.601Z,50.60
2023-03-18T07:55:25.984Z,50.17
2023-03-18T07:57:54.268Z,51.91
2023-03-18T08:00:23.587Z,51.00
2023-03-18T08:02:51.870Z,52.57
2023-03-18T08:05:22.216Z,52.36
2023-03-18T08:07:50.487Z,50.64
2023-03-18T08:10:20.898Z,51.00
2023-03-18T08:12:53.546Z,49.96
2023-03-18T08:15:22.642Z,49.41
2023-03-18T08:17:51.250Z,49.89
2023-03-18T08:20:19.741Z,50.06
2023-03-18T08:22:48.614Z,50.69
2023-03-18T08:25:17.576Z,49.02
2023-03-18T08:27:47.339Z,48.67
2023-03-18T08:30:16.627Z,47.22
2023-03-18T08:32:45.439Z,47.37
2023-03-18T08:35:14.510Z,45.82
2023-03-18T08:37:42.963Z,47.59
2023-03-18T08:40:12.583Z,47.70
2023-03-18T08:42:40.933Z,46.16
2023-03-18T08:45:12.477Z,46.45
2023-03-18T08:47:41.582Z,46.47
2023-03-18T08:50:11.285Z,47.50
2023-03-18T08:52:39.960Z,47.56
2023-03-18T08:55:09.819Z,46.19
2023-03-18T08:57:39.082Z,46.15
2023-03-18T09:00:09.136Z,48.35
2023-03-18T09:02:38.785Z,46.92
2023-03-18T09:05:07.995Z,46.18
2023-03-18T09:07:36.344Z,47.33
2023-03-18T09:10:05.070Z,47.06
2023-03-18T09:12:33.460Z,48.04
2023-03-18T09:15:02.204Z,45.93
2023-03-18T09:17:45.336Z,46.92
2023-03-18T09:20:19.300Z,45.78
2023-03-18T09:22:48.295Z,45.71
2023-03-18T09:25:16.890Z,45.15
2023-03-18T09:27:45.914Z,43.97
2023-03-18T09:30:15.614Z,42.98
2023-03-18T09:32:44.820Z,42.63
2023-03-18T09:35:14.455Z,42.25
2023-03-18T09:37:44.792Z,43.79
2023-03-18T09:40:20.034Z,41.67
2023-03-18T09:43:06.919Z,40.97
2023-03-18T09:45:40.118Z,41.92
2023-03-18T09:48:43.590Z,42.92
2023-03-18T09:51:25.987Z,43.37
2023-03-18T09:53:59.772Z,42.39
2023-03-18T09:56:30.948Z,42.97
2023-03-18T09:59:04.105Z,41.85
2023-03-18T10:01:35.850Z,41.01
2023-03-18T10:04:11.198Z,42.86
2023-03-18T10:06:43.245Z,41.57
2023-03-18T10:09:20.436Z,42.14
2023-03-18T10:11:50.353Z,41.32
2023-03-18T10:14:33.155Z,41.62
2023-03-18T10:17:11.362Z,43.25
2023-03-18T10:19:45.682Z,42.61
2023-03-18T10:23:05.137Z,43.22
2023-03-18T10:25:39.088Z,42.69
2023-03-18T10:28:30.152Z,42.22
2023-03-18T10:31:08.493Z,42.49
2023-03-18T10:33:47.631Z,42.43
2023-03-18T10:36:22.472Z,42.05
2023-03-18T10:38:52.204Z,41.55
2023-03-18T10:41:28.792Z,42.29
2023-03-18T10:43:58.692Z,42.53
2023-03-18T10:46:28.386Z,43.11
2023-03-18T10:49:01.964Z,42.09
2023-03-18T10:51:35.767Z,43.18
2023-03-18T10:54:11.587Z,45.34
2023-03-18T10:56:41.502Z,42.86
2023-03-18T10:59:18.852Z,43.14
2023-03-18T11:01:50.051Z,43.46
2023-03-18T11:04:21.745Z,43.80
2023-03-18T11:06:54.468Z,45.68
2023-03-18T11:09:25.639Z,45.92
2023-03-18T11:12:05.609Z,48.43
2023-03-18T11:14:34.994Z,46.87
2023-03-18T11:17:05.348Z,47.54
2023-03-18T11:19:39.365Z,50.30
2023-03-18T11:22:19.887Z,52.10
2023-03-18T11:25:02.113Z,47.79
2023-03-18T11:27:37.445Z,46.89
2023-03-18T11:30:24.223Z,47.12
2023-03-18T11:32:58.593Z,47.07
2023-03-18T11:35:34.724Z,48.06
2023-03-18T11:38:05.662Z,47.44
2023-03-18T11:40:34.489Z,46.93
2023-03-18T11:43:15.719Z,46.75
2023-03-18T11:45:48.911Z,46.05
2023-03-18T11:48:23.399Z,48.90
2023-03-18T11:51:07.263Z,47.50
2023-03-18T11:53:46.670Z,45.88
2023-03-18T11:56:22.503Z,45.62
2023-03-18T11:59:09.451Z,45.21
2023-03-18T12:01:47.537Z,44.34
2023-03-18T12:04:49.748Z,42.93
2023-03-18T12:07:49.670Z,43.56
2023-03-18T12:10:24.410Z,41.57
2023-03-18T12:13:07.069Z,42.14
2023-03-18T12:15:48.745Z,40.40
2023-03-18T12:18:33.570Z,39.95
2023-03-18T12:21:13.813Z,40.25
2023-03-18T12:23:55.439Z,39.34
2023-03-18T12:26:35.353Z,40.17
2023-03-18T12:29:23.360Z,38.70
2023-03-18T12:32:04.119Z,39.25
2023-03-18T12:34:49.510Z,38.59
2023-03-18T12:37:32.331Z,39.02
2023-03-18T12:40:18.168Z,39.45
2023-03-18T12:43:11.174Z,39.28
2023-03-18T12:45:43.646Z,38.95
2023-03-18T12:48:17.738Z,39.06
2023-03-18T12:50:51.916Z,38.48
2023-03-18T12:53:28.880Z,38.27
2023-03-18T12:56:03.953Z,37.62
2023-03-18T12:58:39.270Z,41.67
2023-03-18T13:01:18.265Z,39.34
2023-03-18T13:03:51.540Z,37.72
2023-03-18T13:06:24.743Z,38.30
2023-03-18T13:09:01.397Z,37.95
2023-03-18T13:11:58.995Z,39.56
2023-03-18T13:14:34.867Z,39.69
2023-03-18T13:17:04.755Z,38.97
2023-03-18T13:19:43.763Z,37.87
2023-03-18T13:22:30.506Z,36.72
2023-03-18T13:25:18.068Z,40.14
2023-03-18T13:27:56.118Z,35.98
2023-03-18T13:30:34.633Z,34.67
2023-03-18T13:33:56.778Z,32.56
2023-03-18T13:37:03.362Z,34.85
2023-03-18T13:39:47.778Z,38.50
2023-03-18T13:42:23.349Z,31.56
2023-03-18T13:44:59.863Z,32.60
2023-03-18T13:47:32.338Z,33.72
2023-03-18T13:50:03.842Z,33.94
2023-03-18T13:52:37.567Z,34.11
2023-03-18T13:55:26.452Z,35.04
2023-03-18T13:58:10.694Z,36.59
2023-03-18T14:00:42.130Z,40.93
2023-03-18T14:03:23.347Z,39.99
2023-03-18T14:05:54.303Z,38.96
2023-03-18T14:08:48.384Z,34.74
2023-03-18T14:11:53.569Z,36.22
2023-03-18T14:14:55.093Z,32.79
2023-03-18T14:17:28.344Z,33.56
2023-03-18T14:19:57.551Z,33.57
2023-03-18T14:22:35.755Z,32.38
2023-03-18T14:25:21.685Z,32.70
2023-03-18T14:27:54.796Z,33.43
2023-03-18T14:30:47.870Z,40.64
2023-03-18T14:33:41.209Z,32.44
2023-03-18T14:36:11.620Z,32.59
2023-03-18T14:38:46.705Z,32.62
2023-03-18T14:41:20.876Z,33.08
2023-03-18T14:43:59.868Z,33.94
2023-03-18T14:46:34.403Z,33.86
2023-03-18T14:49:02.726Z,34.76
2023-03-18T14:51:32.921Z,41.31
2023-03-18T14:54:06.058Z,33.95
2023-03-18T14:56:40.765Z,32.57
2023-03-18T14:59:17.587Z,32.12
2023-03-18T15:01:50.786Z,32.60
2023-03-18T15:04:22.664Z,33.58
2023-03-18T15:06:53.240Z,33.43
2023-03-18T15:09:25.778Z,32.87
2023-03-18T15:11:54.580Z,31.64
2023-03-18T15:14:27.453Z,33.42
2023-03-18T15:16:57.407Z,32.82
2023-03-18T15:19:26.943Z,32.20
2023-03-18T15:21:56.137Z,32.13
2023-03-18T15:24:27.217Z,31.86
2023-03-18T15:27:02.063Z,34.98
2023-03-18T15:29:36.713Z,31.75
2023-03-18T15:32:10.857Z,31.40
2023-03-18T15:34:43.306Z,31.99
2023-03-18T15:37:33.777Z,32.71
2023-03-18T15:40:31.490Z,33.80
2023-03-18T15:43:07.324Z,34.13
2023-03-18T15:45:41.131Z,34.15
2023-03-18T15:48:21.794Z,45.41
2023-03-18T15:50:54.489Z,36.08
2023-03-18T15:53:25.218Z,35.71
2023-03-18T15:55:56.605Z,36.03
2023-03-18T15:58:28.556Z,35.06
2023-03-18T16:00:58.664Z,43.46
2023-03-18T16:03:29.321Z,41.36
2023-03-18T16:05:58.342Z,39.74
2023-03-18T16:08:27.086Z,35.50
2023-03-18T16:10:59.370Z,36.33
2023-03-18T16:13:30.739Z,35.79
2023-03-18T16:16:00.693Z,36.62
2023-03-18T16:18:29.175Z,36.43
2023-03-18T16:20:57.575Z,35.95
2023-03-18T16:23:25.888Z,36.23
2023-03-18T16:25:56.337Z,36.92
2023-03-18T16:28:26.438Z,35.93
2023-03-18T16:30:56.280Z,36.71
2023-03-18T16:33:26.385Z,36.65
2023-03-18T16:35:58.798Z,37.61
2023-03-18T16:38:28.615Z,39.00
2023-03-18T16:40:57.728Z,38.64
2023-03-18T16:43:28.641Z,38.84
2023-03-18T16:46:01.070Z,40.05
2023-03-18T16:48:30.942Z,39.85
2023-03-18T16:51:02.424Z,40.53
2023-03-18T16:53:32.235Z,41.47
2023-03-18T16:56:03.327Z,40.70
2023-03-18T16:58:35.554Z,39.95
2023-03-18T17:01:06.352Z,40.00
2023-03-18T17:03:37.570Z,42.65
2023-03-18T17:06:06.977Z,42.59
2023-03-18T17:08:36.870Z,41.49
2023-03-18T17:11:05.868Z,41.05
2023-03-18T17:13:38.043Z,41.19
2023-03-18T17:16:07.040Z,45.05
2023-03-18T17:18:36.770Z,42.08
2023-03-18T17:21:05.609Z,44.19
2023-03-18T17:23:34.510Z,45.38
2023-03-18T17:26:04.843Z,45.54
2023-03-18T17:28:37.011Z,45.44
2023-03-18T17:31:06.341Z,44.50
2023-03-18T17:33:37.823Z,44.33
2023-03-18T17:36:08.170Z,44.24
2023-03-18T17:38:37.420Z,44.09
2023-03-18T17:41:14.688Z,43.63
2023-03-18T17:43:43.361Z,43.25
2023-03-18T17:46:11.792Z,44.41
2023-03-18T17:48:42.876Z,45.60
2023-03-18T17:51:15.545Z,42.72
2023-03-18T17:53:46.240Z,43.21
2023-03-18T17:56:16.401Z,43.59
2023-03-18T17:58:46.970Z,43.56
2023-03-18T18:01:17.866Z,43.00
2023-03-18T18:03:48.070Z,45.72
2023-03-18T18:06:18.877Z,46.10
2023-03-18T18:08:47.619Z,44.19
2023-03-18T18:11:20.543Z,43.18
2023-03-18T18:13:49.291Z,44.40
2023-03-18T18:16:18.910Z,44.29
2023-03-18T18:18:49.940Z,43.46
2023-03-18T18:21:21.794Z,43.56
2023-03-18T18:23:50.570Z,43.40
2023-03-18T18:26:21.584Z,43.47
2023-03-18T18:28:51.814Z,43.35
2023-03-18T18:31:21.666Z,42.99
2023-03-18T18:33:52.625Z,43.95
2023-03-18T18:36:21.494Z,44.94
2023-03-18T18:38:50.438Z,44.80
2023-03-18T18:41:18.742Z,45.22
2023-03-18T18:43:47.103Z,46.05
2023-03-18T18:46:16.412Z,46.77
2023-03-18T18:48:48.673Z,46.28
2023-03-18T18:51:20.255Z,46.53
2023-03-18T18:53:50.911Z,46.83
2023-03-18T18:56:23.217Z,46.21
2023-03-18T18:58:52.361Z,45.45
2023-03-18T19:01:21.401Z,45.09
2023-03-18T19:03:49.964Z,44.28
2023-03-18T19:06:27.721Z,44.08
2023-03-18T19:08:57.801Z,44.09
2023-03-18T19:11:27.050Z,44.70
2023-03-18T19:13:56.375Z,45.93
2023-03-18T19:16:30.389Z,45.17
2023-03-18T19:18:59.256Z,44.13
2023-03-18T19:21:29.080Z,45.22
2023-03-18T19:23:58.351Z,45.17
2023-03-18T19:26:27.309Z,44.75
2023-03-18T19:28:59.666Z,45.94
2023-03-18T19:31:32.434Z,45.92
2023-03-18T19:34:02.281Z,45.37
2023-03-18T19:36:38.987Z,45.86
2023-03-18T19:39:08.322Z,45.78
2023-03-18T19:41:36.975Z,45.91
2023-03-18T19:44:16.219Z,45.55
2023-03-18T19:46:45.468Z,45.87
2023-03-18T19:49:19.005Z,45.96
2023-03-18T19:51:49.892Z,46.03
2023-03-18T19:54:28.973Z,46.56
2023-03-18T19:57:00.745Z,47.05
2023-03-18T19:59:38.156Z,47.08
2023-03-18T20:02:19.914Z,48.22
2023-03-18T20:04:49.594Z,48.29
2023-03-18T20:07:20.865Z,49.72
2023-03-18T20:09:49.550Z,55.00
2023-03-18T20:12:25.119Z,50.99
2023-03-18T20:14:53.898Z,48.88
2023-03-18T20:17:37.566Z,48.40
2023-03-18T20:20:07.460Z,49.92
2023-03-18T20:22:40.319Z,49.31
2023-03-18T20:25:17.002Z,50.58
2023-03-18T20:27:45.686Z,49.88
2023-03-18T20:30:24.375Z,49.70
2023-03-18T20:32:52.757Z,49.40
2023-03-18T20:35:21.541Z,49.58
2023-03-18T20:37:51.501Z,51.24
2023-03-18T20:40:23.371Z,49.27
2023-03-18T20:42:52.993Z,51.07
2023-03-18T20:45:22.402Z,48.41
2023-03-18T20:47:50.772Z,49.61
2023-03-18T20:50:28.489Z,48.14
2023-03-18T20:52:58.801Z,50.46
2023-03-18T20:55:30.731Z,48.87
2023-03-18T20:57:59.617Z,51.87
2023-03-18T21:00:30.237Z,52.42
2023-03-18T21:03:00.182Z,51.08
2023-03-18T21:05:28.894Z,49.72
2023-03-18T21:07:58.542Z,50.06
2023-03-18T21:10:28.579Z,48.23
2023-03-18T21:12:57.095Z,48.58
2023-03-18T21:15:27.365Z,52.57
2023-03-18T21:17:55.736Z,48.64
2023-03-18T21:20:29.196Z,50.07
2023-03-18T21:22:58.851Z,47.64
2023-03-18T21:25:29.295Z,48.77
2023-03-18T21:27:57.941Z,49.99
2023-03-18T21:30:26.229Z,53.88
2023-03-18T21:32:54.566Z,53.15
2023-03-18T21:35:25.140Z,50.71
2023-03-18T21:37:54.010Z,52.47
2023-03-18T21:40:26.372Z,51.24
2023-03-18T21:42:54.930Z,53.81
2023-03-18T21:45:24.349Z,50.53
2023-03-18T21:47:53.423Z,50.97
2023-03-18T21:50:24.524Z,50.14
2023-03-18T21:52:53.753Z,50.13
2023-03-18T21:55:23.834Z,49.90
2023-03-18T21:57:52.097Z,49.92
2023-03-18T22:00:21.793Z,51.25
2023-03-18T22:02:50.093Z,50.21
2023-03-18T22:05:20.605Z,50.37
2023-03-18T22:07:50.640Z,52.58
2023-03-18T22:10:21.427Z,51.99
2023-03-18T22:12:51.544Z,51.88
2023-03-18T22:15:39.847Z,51.60
2023-03-18T22:18:08.758Z,50.89
2023-03-18T22:20:37.811Z,51.38
2023-03-18T22:23:14.740Z,52.90
2023-03-18T22:25:43.576Z,53.31
2023-03-18T22:28:13.517Z,53.15
2023-03-18T22:30:43.615Z,53.21
2023-03-18T22:33:19.736Z,54.31
2023-03-18T22:35:48.938Z,57.03
2023-03-18T22:38:18.983Z,53.31
2023-03-18T22:40:48.374Z,51.53
2023-03-18T22:43:29.548Z,50.28
2023-03-18T22:45:57.959Z,50.97
2023-03-18T22:48:26.524Z,52.06
2023-03-18T22:50:55.495Z,51.67
2023-03-18T22:53:28.180Z,50.99
2023-03-18T22:55:57.776Z,51.12
2023-03-18T22:58:28.806Z,52.58
2023-03-18T23:00:57.497Z,52.70
2023-03-18T23:03:29.934Z,51.22
2023-03-18T23:06:00.084Z,54.38
2023-03-18T23:08:28.862Z,54.11
2023-03-18T23:10:58.315Z,52.78
2023-03-18T23:13:31.144Z,54.49
2023-03-18T23:15:59.474Z,53.73
2023-03-18T23:18:27.962Z,52.79
2023-03-18T23:20:56.309Z,52.35
2023-03-18T23:23:25.120Z,52.60
2023-03-18T23:25:53.651Z,53.38
2023-03-18T23:28:21.940Z,56.84
2023-03-18T23:30:53.493Z,59.33
2023-03-18T23:33:21.833Z,59.58
2023-03-18T23:35:50.164Z,61.36
2023-03-18T23:38:18.580Z,62.31
2023-03-18T23:40:46.882Z,62.45
2023-03-18T23:43:15.093Z,61.96
2023-03-18T23:45:43.440Z,61.01
2023-03-18T23:48:13.278Z,58.14
2023-03-18T23:50:41.561Z,56.74
2023-03-18T23:53:09.857Z,56.26
2023-03-18T23:55:38.220Z,55.71
2023-03-18T23:58:06.464Z,56.81
